createdAt,value
2016-08-06T00:00:25.098Z,959.93
2016-08-06T00:01:25.065Z,960
2016-08-06T00:02:25.055Z,959.98
2016-08-06T00:03:25.049Z,959.99
2016-08-06T00:04:25.201Z,960.04
2016-08-06T00:05:25.049Z,960.07
2016-08-06T00:06:25.035Z,960.1
2016-08-06T00:07:25.031Z,960.08
2016-08-06T00:08:25.068Z,960.08
2016-08-06T00:09:25.070Z,960.1
2016-08-06T00:10:25.018Z,960.12
2016-08-06T00:11:25.006Z,960.13
2016-08-06T00:12:25.000Z,960.12
2016-08-06T00:13:25.031Z,960.13
2016-08-06T00:14:24.999Z,960.16
2016-08-06T00:15:24.984Z,960.18
2016-08-06T00:16:24.990Z,960.18
2016-08-06T00:17:25.027Z,960.17
2016-08-06T00:18:24.967Z,960.23
2016-08-06T00:19:24.961Z,960.21
2016-08-06T00:20:24.965Z,960.25
2016-08-06T00:21:24.984Z,960.25
2016-08-06T00:22:24.958Z,960.28
2016-08-06T00:23:24.949Z,960.26
2016-08-06T00:24:24.934Z,960.23
2016-08-06T00:25:24.940Z,960.24
2016-08-06T00:26:24.923Z,960.26
2016-08-06T00:27:24.960Z,960.21
2016-08-06T00:28:24.917Z,960.25
2016-08-06T00:29:24.938Z,960.28
2016-08-06T00:30:24.957Z,960.3
2016-08-06T00:31:24.971Z,960.32
2016-08-06T00:32:24.915Z,960.29
2016-08-06T00:33:24.887Z,960.3
2016-08-06T00:34:24.885Z,960.22
2016-08-06T00:35:24.879Z,960.24
2016-08-06T00:36:24.866Z,960.22
2016-08-06T00:37:24.872Z,960.2
2016-08-06T00:38:24.853Z,960.23
2016-08-06T00:39:24.860Z,960.2
2016-08-06T00:40:24.842Z,960.2
2016-08-06T00:41:24.840Z,960.25
2016-08-06T00:42:24.845Z,960.28
2016-08-06T00:43:24.831Z,960.27
2016-08-06T00:44:24.825Z,960.29
2016-08-06T00:45:24.824Z,960.27
2016-08-06T00:46:24.810Z,960.24
2016-08-06T00:47:24.817Z,960.22
2016-08-06T00:48:24.801Z,960.19
2016-08-06T00:49:24.798Z,960.15
2016-08-06T00:50:24.808Z,960.2
2016-08-06T00:51:24.784Z,960.21
2016-08-06T00:52:24.790Z,960.19
2016-08-06T00:53:24.769Z,960.24
2016-08-06T00:54:24.765Z,960.23
2016-08-06T00:55:24.763Z,960.26
2016-08-06T00:56:24.751Z,960.22
2016-08-06T00:57:24.751Z,960.22
2016-08-06T00:58:24.739Z,960.23
2016-08-06T00:59:24.759Z,960.24
2016-08-06T01:00:24.823Z,960.24
2016-08-06T01:01:24.765Z,960.27
2016-08-06T01:02:24.717Z,960.32
2016-08-06T01:03:24.784Z,960.29
2016-08-06T01:04:24.705Z,960.3
2016-08-06T01:05:24.709Z,960.31
2016-08-06T01:06:24.694Z,960.31
2016-08-06T01:07:24.686Z,960.29
2016-08-06T01:08:24.687Z,960.31
2016-08-06T01:09:24.674Z,960.32
2016-08-06T01:10:24.668Z,960.31
2016-08-06T01:11:24.661Z,960.39
2016-08-06T01:12:24.662Z,960.36
2016-08-06T01:13:24.653Z,960.42
2016-08-06T01:14:24.658Z,960.42
2016-08-06T01:15:24.673Z,960.46
2016-08-06T01:16:24.680Z,960.45
2016-08-06T01:17:24.626Z,960.51
2016-08-06T01:18:24.628Z,960.49
2016-08-06T01:19:24.616Z,960.54
2016-08-06T01:20:24.610Z,960.55
2016-08-06T01:21:24.607Z,960.54
2016-08-06T01:22:24.601Z,960.56
2016-08-06T01:23:24.595Z,960.6
2016-08-06T01:24:24.689Z,960.57
2016-08-06T01:25:24.578Z,960.6
2016-08-06T01:26:24.581Z,960.62
2016-08-06T01:27:24.574Z,960.65
2016-08-06T01:28:24.558Z,960.67
2016-08-06T01:29:24.552Z,960.63
2016-08-06T01:31:24.547Z,960.62
2016-08-06T01:32:24.554Z,960.64
2016-08-06T01:33:24.530Z,960.65
2016-08-06T01:34:24.528Z,960.63
2016-08-06T01:35:24.516Z,960.65
2016-08-06T01:36:24.512Z,960.66
2016-08-06T01:37:24.508Z,960.67
2016-08-06T01:38:24.503Z,960.69
2016-08-06T01:39:24.502Z,960.69
2016-08-06T01:40:24.493Z,960.7
2016-08-06T01:41:24.483Z,960.7
2016-08-06T01:42:24.482Z,960.72
2016-08-06T01:43:24.473Z,960.73
2016-08-06T01:44:24.462Z,960.73
2016-08-06T01:46:24.449Z,960.77
2016-08-06T01:47:24.446Z,960.77
2016-08-06T01:48:24.442Z,960.75
2016-08-06T01:49:24.432Z,960.75
2016-08-06T01:50:24.418Z,960.75
2016-08-06T01:51:24.418Z,960.77
2016-08-06T01:52:24.416Z,960.77
2016-08-06T01:53:24.404Z,960.73
2016-08-06T01:54:24.407Z,960.77
2016-08-06T01:55:24.392Z,960.75
2016-08-06T01:56:24.387Z,960.74
2016-08-06T01:57:24.379Z,960.74
2016-08-06T01:58:24.373Z,960.74
2016-08-06T01:59:24.362Z,960.76
2016-08-06T02:01:24.382Z,960.81
2016-08-06T02:02:24.356Z,960.84
2016-08-06T02:03:24.343Z,960.83
2016-08-06T02:04:24.334Z,960.85
2016-08-06T02:05:24.324Z,960.84
2016-08-06T02:06:24.326Z,960.81
2016-08-06T02:07:24.314Z,960.83
2016-08-06T02:08:24.307Z,960.77
2016-08-06T02:09:24.303Z,960.77
2016-08-06T02:10:24.296Z,960.76
2016-08-06T02:11:24.285Z,960.77
2016-08-06T02:12:24.280Z,960.77
2016-08-06T02:13:24.272Z,960.81
2016-08-06T02:14:24.268Z,960.79
2016-08-06T02:16:24.259Z,960.78
2016-08-06T02:17:24.244Z,960.76
2016-08-06T02:18:24.243Z,960.77
2016-08-06T02:19:24.235Z,960.78
2016-08-06T02:20:24.233Z,960.77
2016-08-06T02:21:24.225Z,960.8
2016-08-06T02:22:24.220Z,960.78
2016-08-06T02:23:24.209Z,960.8
2016-08-06T02:24:24.201Z,960.81
2016-08-06T02:25:24.198Z,960.81
2016-08-06T02:26:24.192Z,960.87
2016-08-06T02:27:24.185Z,960.82
2016-08-06T02:28:24.183Z,960.87
2016-08-06T02:29:24.169Z,960.87
2016-08-06T02:30:24.242Z,960.88
2016-08-06T02:31:24.151Z,960.87
2016-08-06T02:32:24.144Z,960.86
2016-08-06T02:33:24.150Z,960.84
2016-08-06T02:34:24.131Z,960.81
2016-08-06T02:35:24.133Z,960.81
2016-08-06T02:36:24.118Z,960.8
2016-08-06T02:37:24.120Z,960.85
2016-08-06T02:38:24.119Z,960.8
2016-08-06T02:39:24.100Z,960.82
2016-08-06T02:40:24.094Z,960.86
2016-08-06T02:41:24.092Z,960.9
2016-08-06T02:42:24.079Z,960.89
2016-08-06T02:43:24.075Z,960.92
2016-08-06T02:44:24.068Z,960.94
2016-08-06T02:45:24.070Z,960.93
2016-08-06T02:46:24.053Z,960.9
2016-08-06T02:47:24.045Z,960.93
2016-08-06T02:48:24.051Z,960.94
2016-08-06T02:49:24.034Z,960.96
2016-08-06T02:50:24.024Z,960.94
2016-08-06T02:51:24.019Z,960.92
2016-08-06T02:52:24.070Z,960.89
2016-08-06T02:53:24.011Z,960.85
2016-08-06T02:54:24.002Z,960.86
2016-08-06T02:55:24.019Z,960.85
2016-08-06T02:56:23.989Z,960.85
2016-08-06T02:57:23.986Z,960.85
2016-08-06T02:58:23.976Z,960.88
2016-08-06T02:59:23.970Z,960.9
2016-08-06T03:00:23.958Z,960.9
2016-08-06T03:01:23.957Z,960.92
2016-08-06T03:02:23.945Z,960.89
2016-08-06T03:03:23.938Z,960.91
2016-08-06T03:04:23.931Z,960.88
2016-08-06T03:05:23.925Z,960.89
2016-08-06T03:06:23.919Z,960.86
2016-08-06T03:07:23.924Z,960.86
2016-08-06T03:08:23.909Z,960.86
2016-08-06T03:09:23.896Z,960.86
2016-08-06T03:10:23.906Z,960.9
2016-08-06T03:11:23.887Z,960.9
2016-08-06T03:12:23.895Z,960.89
2016-08-06T03:13:23.871Z,960.88
2016-08-06T03:14:23.862Z,960.89
2016-08-06T03:15:23.860Z,960.96
2016-08-06T03:16:23.849Z,960.97
2016-08-06T03:17:23.849Z,960.95
2016-08-06T03:18:23.836Z,960.91
2016-08-06T03:19:23.830Z,960.97
2016-08-06T03:20:23.829Z,960.95
2016-08-06T03:21:23.828Z,960.94
2016-08-06T03:22:23.808Z,960.94
2016-08-06T03:23:23.808Z,960.97
2016-08-06T03:24:23.796Z,960.97
2016-08-06T03:25:23.791Z,961
2016-08-06T03:26:23.780Z,961.04
2016-08-06T03:27:23.785Z,961.03
2016-08-06T03:28:23.777Z,961.02
2016-08-06T03:29:23.794Z,961.03
2016-08-06T03:30:23.759Z,961.03
2016-08-06T03:31:23.747Z,961
2016-08-06T03:32:23.741Z,960.96
2016-08-06T03:33:23.744Z,960.99
2016-08-06T03:34:23.729Z,961
2016-08-06T03:35:23.778Z,960.97
2016-08-06T03:36:23.755Z,960.97
2016-08-06T03:37:23.716Z,960.98
2016-08-06T03:38:23.708Z,960.95
2016-08-06T03:39:23.693Z,960.97
2016-08-06T03:40:23.688Z,961
2016-08-06T03:41:23.685Z,961.04
2016-08-06T03:42:23.682Z,961.04
2016-08-06T03:43:23.676Z,960.99
2016-08-06T03:44:23.698Z,961.01
2016-08-06T03:45:23.668Z,961.02
2016-08-06T03:46:23.644Z,960.99
2016-08-06T03:47:23.638Z,961
2016-08-06T03:48:23.632Z,961
2016-08-06T03:49:23.636Z,960.96
2016-08-06T03:50:23.621Z,960.92
2016-08-06T03:51:23.615Z,960.91
2016-08-06T03:52:23.610Z,960.88
2016-08-06T03:53:23.599Z,960.88
2016-08-06T03:54:23.614Z,960.88
2016-08-06T03:55:23.584Z,960.85
2016-08-06T03:56:23.575Z,960.85
2016-08-06T03:57:23.581Z,960.89
2016-08-06T03:58:23.565Z,960.88
2016-08-06T03:59:23.554Z,960.95
2016-08-06T04:00:23.558Z,960.96
2016-08-06T04:01:23.540Z,960.98
2016-08-06T04:02:23.537Z,961.01
2016-08-06T04:03:23.525Z,961.04
2016-08-06T04:04:23.548Z,961.05
2016-08-06T04:05:23.516Z,961.06
2016-08-06T04:06:23.507Z,961.06
2016-08-06T04:07:23.515Z,961.06
2016-08-06T04:08:23.499Z,961.06
2016-08-06T04:09:23.492Z,961.03
2016-08-06T04:10:23.484Z,961.03
2016-08-06T04:11:23.478Z,961.03
2016-08-06T04:12:23.481Z,961.01
2016-08-06T04:13:23.467Z,961
2016-08-06T04:14:23.458Z,961.02
2016-08-06T04:15:23.446Z,960.96
2016-08-06T04:16:23.439Z,960.99
2016-08-06T04:17:23.433Z,960.97
2016-08-06T04:18:23.433Z,960.97
2016-08-06T04:19:23.434Z,961.03
2016-08-06T04:20:23.430Z,961.03
2016-08-06T04:21:23.405Z,961.04
2016-08-06T04:22:23.410Z,961.03
2016-08-06T04:23:23.404Z,961.06
2016-08-06T04:24:23.387Z,961.03
2016-08-06T04:25:23.387Z,961.07
2016-08-06T04:26:23.382Z,961.09
2016-08-06T04:27:23.371Z,961.09
2016-08-06T04:28:23.380Z,961.12
2016-08-06T04:29:23.362Z,961.09
2016-08-06T04:30:23.349Z,961.13
2016-08-06T04:31:23.345Z,961.13
2016-08-06T04:32:23.344Z,961.16
2016-08-06T04:33:23.335Z,961.23
2016-08-06T04:34:23.331Z,961.23
2016-08-06T04:35:23.320Z,961.21
2016-08-06T04:36:23.316Z,961.25
2016-08-06T04:37:23.320Z,961.25
2016-08-06T04:38:23.311Z,961.24
2016-08-06T04:39:23.303Z,961.29
2016-08-06T04:40:23.300Z,961.28
2016-08-06T04:41:23.331Z,961.28
2016-08-06T04:42:23.284Z,961.27
2016-08-06T04:43:23.280Z,961.27
2016-08-06T04:44:23.317Z,961.29
2016-08-06T04:45:23.267Z,961.32
2016-08-06T04:46:23.255Z,961.36
2016-08-06T04:47:23.255Z,961.36
2016-08-06T04:48:23.242Z,961.34
2016-08-06T04:49:23.247Z,961.36
2016-08-06T04:50:23.239Z,961.33
2016-08-06T04:51:23.231Z,961.39
2016-08-06T04:52:23.233Z,961.42
2016-08-06T04:53:23.225Z,961.4
2016-08-06T04:54:23.223Z,961.43
2016-08-06T04:55:23.311Z,961.46
2016-08-06T04:56:23.204Z,961.45
2016-08-06T04:57:23.200Z,961.49
2016-08-06T04:58:23.202Z,961.49
2016-08-06T04:59:23.204Z,961.5
2016-08-06T05:00:23.180Z,961.46
2016-08-06T05:01:23.178Z,961.42
2016-08-06T05:02:23.174Z,961.44
2016-08-06T05:03:23.174Z,961.4
2016-08-06T05:04:23.161Z,961.39
2016-08-06T05:05:23.155Z,961.46
2016-08-06T05:06:23.157Z,961.46
2016-08-06T05:07:23.147Z,961.52
2016-08-06T05:08:23.156Z,961.52
2016-08-06T05:09:23.138Z,961.52
2016-08-06T05:10:23.136Z,961.54
2016-08-06T05:11:23.128Z,961.56
2016-08-06T05:12:23.125Z,961.53
2016-08-06T05:13:23.119Z,961.49
2016-08-06T05:14:23.123Z,961.52
2016-08-06T05:15:23.111Z,961.5
2016-08-06T05:17:23.103Z,961.51
2016-08-06T05:18:23.103Z,961.49
2016-08-06T05:19:23.110Z,961.54
2016-08-06T05:20:23.097Z,961.53
2016-08-06T05:21:23.091Z,961.52
2016-08-06T05:22:23.086Z,961.56
2016-08-06T05:23:23.079Z,961.49
2016-08-06T05:24:23.081Z,961.54
2016-08-06T05:25:23.070Z,961.57
2016-08-06T05:26:23.066Z,961.55
2016-08-06T05:27:23.063Z,961.55
2016-08-06T05:28:23.064Z,961.57
2016-08-06T05:29:23.053Z,961.53
2016-08-06T05:30:23.050Z,961.52
2016-08-06T05:32:23.050Z,961.57
2016-08-06T05:33:23.038Z,961.54
2016-08-06T05:34:23.039Z,961.56
2016-08-06T05:35:23.032Z,961.58
2016-08-06T05:36:23.030Z,961.6
2016-08-06T05:37:23.019Z,961.59
2016-08-06T05:38:23.027Z,961.64
2016-08-06T05:39:23.012Z,961.62
2016-08-06T05:40:23.007Z,961.62
2016-08-06T05:41:23.012Z,961.63
2016-08-06T05:42:23.013Z,961.66
2016-08-06T05:43:23.008Z,961.72
2016-08-06T05:44:23.196Z,961.7
2016-08-06T05:45:22.986Z,961.72
2016-08-06T05:47:22.984Z,961.73
2016-08-06T05:48:22.982Z,961.77
2016-08-06T05:49:23.009Z,961.79
2016-08-06T05:50:22.988Z,961.77
2016-08-06T05:51:22.976Z,961.77
2016-08-06T05:52:22.968Z,961.73
2016-08-06T05:53:22.958Z,961.76
2016-08-06T05:54:22.957Z,961.75
2016-08-06T05:55:22.960Z,961.78
2016-08-06T05:56:22.960Z,961.81
2016-08-06T05:57:22.949Z,961.81
2016-08-06T05:58:22.949Z,961.81
2016-08-06T05:59:22.936Z,961.81
2016-08-06T06:00:22.936Z,961.8
2016-08-06T06:02:22.936Z,961.9
2016-08-06T06:03:22.923Z,961.92
2016-08-06T06:04:22.931Z,961.94
2016-08-06T06:05:22.925Z,961.91
2016-08-06T06:06:22.915Z,961.91
2016-08-06T06:07:22.912Z,961.89
2016-08-06T06:08:22.907Z,961.89
2016-08-06T06:09:23.064Z,961.89
2016-08-06T06:10:22.922Z,961.9
2016-08-06T06:11:22.893Z,961.94
2016-08-06T06:12:22.892Z,961.93
2016-08-06T06:13:22.891Z,961.92
2016-08-06T06:14:22.883Z,961.91
2016-08-06T06:15:22.883Z,961.9
2016-08-06T06:16:22.878Z,961.93
2016-08-06T06:17:22.886Z,961.89
2016-08-06T06:18:22.874Z,961.9
2016-08-06T06:19:22.875Z,961.89
2016-08-06T06:20:22.865Z,961.91
2016-08-06T06:21:22.869Z,961.95
2016-08-06T06:22:22.883Z,961.92
2016-08-06T06:23:22.864Z,961.92
2016-08-06T06:24:22.856Z,961.9
2016-08-06T06:25:22.849Z,961.9
2016-08-06T06:26:22.859Z,961.89
2016-08-06T06:27:22.841Z,961.84
2016-08-06T06:28:22.844Z,961.86
2016-08-06T06:29:22.844Z,961.88
2016-08-06T06:30:22.840Z,961.88
2016-08-06T06:31:22.836Z,961.9
2016-08-06T06:32:22.927Z,961.9
2016-08-06T06:33:22.820Z,961.92
2016-08-06T06:34:22.815Z,961.94
2016-08-06T06:35:22.822Z,961.99
2016-08-06T06:36:22.817Z,961.99
2016-08-06T06:37:22.810Z,961.96
2016-08-06T06:38:22.831Z,962
2016-08-06T06:39:22.799Z,962.02
2016-08-06T06:40:22.798Z,962.04
2016-08-06T06:41:22.800Z,962.06
2016-08-06T06:42:22.792Z,962.04
2016-08-06T06:43:22.787Z,962.06
2016-08-06T06:44:22.794Z,962.04
2016-08-06T06:45:22.782Z,962.04
2016-08-06T06:47:22.778Z,962.05
2016-08-06T06:48:22.779Z,962.06
2016-08-06T06:49:22.777Z,962.06
2016-08-06T06:50:22.767Z,962.09
2016-08-06T06:51:22.763Z,962.1
2016-08-06T06:55:22.751Z,962.09
2016-08-06T06:56:22.750Z,962.08
2016-08-06T06:57:22.752Z,962.11
2016-08-06T06:58:22.743Z,962.14
2016-08-06T06:59:22.740Z,962.1
2016-08-06T07:00:22.743Z,962.12
2016-08-06T07:01:22.733Z,962.23
2016-08-06T07:02:22.736Z,962.05
2016-08-06T07:03:22.734Z,962.25
2016-08-06T07:04:22.734Z,962.44
2016-08-06T07:05:22.726Z,962.09
2016-08-06T07:06:22.725Z,962.38
2016-08-06T07:07:22.723Z,962.13
2016-08-06T07:08:22.724Z,962.32
2016-08-06T07:09:22.720Z,962.46
2016-08-06T07:10:22.720Z,962.27
2016-08-06T07:11:22.727Z,962.32
2016-08-06T07:12:22.721Z,962.02
2016-08-06T07:13:22.724Z,962
2016-08-06T07:14:22.718Z,961.99
2016-08-06T07:15:22.724Z,961.96
2016-08-06T07:16:22.722Z,962
2016-08-06T07:17:22.724Z,962.1
2016-08-06T07:18:22.721Z,962.13
2016-08-06T07:19:22.714Z,962.36
2016-08-06T07:20:22.715Z,961.97
2016-08-06T07:21:22.715Z,961.97
2016-08-06T07:22:22.715Z,962.06
2016-08-06T07:23:22.716Z,962.08
2016-08-06T07:24:22.715Z,962.06
2016-08-06T07:25:22.715Z,962.89
2016-08-06T07:26:22.766Z,962.42
2016-08-06T07:27:22.719Z,963.1
2016-08-06T07:28:22.764Z,962.42
2016-08-06T07:29:22.740Z,962.04
2016-08-06T07:30:22.719Z,962.06
2016-08-06T07:31:22.733Z,962.16
2016-08-06T07:32:22.716Z,962.17
2016-08-06T07:33:22.721Z,962.8
2016-08-06T07:34:22.716Z,962.25
2016-08-06T07:35:22.718Z,962.15
2016-08-06T07:36:22.717Z,962.05
2016-08-06T07:37:22.719Z,963.23
2016-08-06T07:38:22.719Z,962.71
2016-08-06T07:39:22.718Z,962.14
2016-08-06T07:40:22.729Z,962.11
2016-08-06T07:41:22.729Z,962.14
2016-08-06T07:42:22.722Z,962.34
2016-08-06T07:43:22.721Z,962.3
2016-08-06T07:44:22.723Z,962.37
2016-08-06T07:45:22.730Z,962.11
2016-08-06T07:46:22.730Z,962.12
2016-08-06T07:47:22.753Z,962.15
2016-08-06T07:48:22.732Z,962.17
2016-08-06T07:49:22.726Z,962.23
2016-08-06T07:50:22.732Z,962.18
2016-08-06T07:51:22.746Z,962.23
2016-08-06T07:52:22.729Z,962.17
2016-08-06T07:53:22.743Z,962.26
2016-08-06T07:54:22.742Z,962.19
2016-08-06T07:55:22.735Z,962.18
2016-08-06T07:56:22.742Z,962.13
2016-08-06T07:57:22.750Z,962.13
2016-08-06T07:58:22.759Z,962.1
2016-08-06T07:59:22.750Z,962.16
2016-08-06T08:00:22.751Z,962.19
2016-08-06T08:01:22.747Z,962.14
2016-08-06T08:02:22.747Z,962.17
2016-08-06T08:03:22.754Z,962.19
2016-08-06T08:04:22.759Z,962.25
2016-08-06T08:05:22.746Z,962.2
2016-08-06T08:06:22.749Z,962.3
2016-08-06T08:07:22.747Z,962.23
2016-08-06T08:08:22.751Z,962.2
2016-08-06T08:09:22.757Z,962.22
2016-08-06T08:10:22.753Z,962.26
2016-08-06T08:11:22.751Z,962.23
2016-08-06T08:12:22.780Z,962.25
2016-08-06T08:13:22.760Z,962.32
2016-08-06T08:14:22.758Z,962.27
2016-08-06T08:15:22.783Z,962.33
2016-08-06T08:16:22.785Z,962.28
2016-08-06T08:17:22.788Z,962.33
2016-08-06T08:18:22.758Z,962.34
2016-08-06T08:19:22.767Z,962.34
2016-08-06T08:20:22.768Z,962.28
2016-08-06T08:21:22.763Z,962.35
2016-08-06T08:22:22.764Z,962.35
2016-08-06T08:23:22.767Z,962.32
2016-08-06T08:24:22.764Z,962.35
2016-08-06T08:25:22.765Z,962.37
2016-08-06T08:26:22.762Z,962.4
2016-08-06T08:27:22.770Z,962.39
2016-08-06T08:28:22.826Z,962.36
2016-08-06T08:29:22.772Z,962.38
2016-08-06T08:30:22.764Z,962.39
2016-08-06T08:31:22.763Z,962.37
2016-08-06T08:33:22.771Z,962.34
2016-08-06T08:34:22.771Z,962.35
2016-08-06T08:35:22.763Z,962.32
2016-08-06T08:36:22.758Z,962.36
2016-08-06T08:37:22.765Z,962.34
2016-08-06T08:38:22.770Z,962.4
2016-08-06T08:39:22.775Z,962.4
2016-08-06T08:40:22.772Z,962.41
2016-08-06T08:41:22.771Z,962.41
2016-08-06T08:42:22.766Z,962.41
2016-08-06T08:43:22.760Z,962.43
2016-08-06T08:44:22.767Z,962.48
2016-08-06T08:45:22.764Z,962.45
2016-08-06T08:46:22.763Z,962.49
2016-08-06T08:47:22.768Z,962.48
2016-08-06T08:48:22.765Z,962.54
2016-08-06T08:49:22.773Z,962.53
2016-08-06T08:50:22.768Z,962.48
2016-08-06T08:51:22.765Z,962.46
2016-08-06T08:52:22.762Z,962.47
2016-08-06T08:53:22.764Z,962.47
2016-08-06T08:54:22.769Z,962.47
2016-08-06T08:55:22.763Z,962.49
2016-08-06T08:56:22.779Z,962.45
2016-08-06T08:57:22.775Z,962.47
2016-08-06T08:58:22.767Z,962.47
2016-08-06T08:59:22.770Z,962.47
2016-08-06T09:00:22.768Z,962.5
2016-08-06T09:01:22.774Z,962.47
2016-08-06T09:03:22.768Z,962.47
2016-08-06T09:04:22.769Z,962.47
2016-08-06T09:05:22.767Z,962.5
2016-08-06T09:06:22.773Z,962.53
2016-08-06T09:07:22.773Z,962.53
2016-08-06T09:08:22.773Z,962.5
2016-08-06T09:09:22.769Z,962.55
2016-08-06T09:10:22.773Z,962.55
2016-08-06T09:11:22.776Z,962.53
2016-08-06T09:12:22.775Z,962.51
2016-08-06T09:13:22.786Z,962.51
2016-08-06T09:14:22.780Z,962.57
2016-08-06T09:15:22.776Z,962.51
2016-08-06T09:16:22.776Z,962.5
2016-08-06T09:18:22.773Z,962.51
2016-08-06T09:19:22.774Z,962.51
2016-08-06T09:20:22.773Z,962.51
2016-08-06T09:21:22.784Z,962.5
2016-08-06T09:22:22.778Z,962.48
2016-08-06T09:23:22.778Z,962.46
2016-08-06T09:24:22.783Z,962.49
2016-08-06T09:25:22.778Z,962.48
2016-08-06T09:26:22.799Z,962.47
2016-08-06T09:27:22.785Z,962.48
2016-08-06T09:28:22.833Z,962.5
2016-08-06T09:29:22.785Z,962.49
2016-08-06T09:30:22.790Z,962.5
2016-08-06T09:31:22.786Z,962.46
2016-08-06T09:33:22.799Z,962.43
2016-08-06T09:34:22.787Z,962.43
2016-08-06T09:35:22.788Z,962.4
2016-08-06T09:36:22.800Z,962.43
2016-08-06T09:37:22.787Z,962.41
2016-08-06T09:38:22.789Z,962.41
2016-08-06T09:39:22.796Z,962.43
2016-08-06T09:40:22.791Z,962.42
2016-08-06T09:41:22.798Z,962.42
2016-08-06T09:42:22.809Z,962.43
2016-08-06T09:43:22.809Z,962.46
2016-08-06T09:44:22.805Z,962.47
2016-08-06T09:45:22.803Z,962.43
2016-08-06T09:46:22.814Z,962.48
2016-08-06T09:48:22.799Z,962.47
2016-08-06T09:49:22.799Z,962.48
2016-08-06T09:50:22.803Z,962.46
2016-08-06T09:51:22.802Z,962.48
2016-08-06T09:52:22.802Z,962.43
2016-08-06T09:53:22.803Z,962.42
2016-08-06T09:54:22.812Z,962.49
2016-08-06T09:55:22.805Z,962.48
2016-08-06T09:56:22.813Z,962.55
2016-08-06T09:57:22.814Z,962.5
2016-08-06T09:58:22.812Z,962.54
2016-08-06T09:59:22.806Z,962.58
2016-08-06T10:00:22.818Z,962.57
2016-08-06T10:01:22.807Z,962.55
2016-08-06T10:03:22.814Z,962.59
2016-08-06T10:04:22.819Z,962.61
2016-08-06T10:05:22.814Z,962.56
2016-08-06T10:06:22.817Z,962.55
2016-08-06T10:07:22.814Z,962.54
2016-08-06T10:08:22.816Z,962.56
2016-08-06T10:09:22.817Z,962.55
2016-08-06T10:10:22.818Z,962.54
2016-08-06T10:11:22.824Z,962.53
2016-08-06T10:12:22.816Z,962.47
2016-08-06T10:13:22.820Z,962.51
2016-08-06T10:14:22.824Z,962.54
2016-08-06T10:15:22.818Z,962.48
2016-08-06T10:16:22.825Z,962.51
2016-08-06T10:17:22.822Z,962.53
2016-08-06T10:18:22.828Z,962.5
2016-08-06T10:19:22.831Z,962.51
2016-08-06T10:20:22.827Z,962.54
2016-08-06T10:21:22.826Z,962.51
2016-08-06T10:22:22.828Z,962.57
2016-08-06T10:23:22.827Z,962.61
2016-08-06T10:24:22.833Z,962.57
2016-08-06T10:25:22.828Z,962.6
2016-08-06T10:26:22.830Z,962.57
2016-08-06T10:27:22.830Z,962.58
2016-08-06T10:28:22.833Z,962.56
2016-08-06T10:29:22.847Z,962.62
2016-08-06T10:30:22.833Z,962.64
2016-08-06T10:31:22.853Z,962.62
2016-08-06T10:32:22.836Z,962.65
2016-08-06T10:33:22.838Z,962.6
2016-08-06T10:34:22.849Z,962.56
2016-08-06T10:35:22.844Z,962.58
2016-08-06T10:36:22.849Z,962.58
2016-08-06T10:37:22.847Z,962.61
2016-08-06T10:38:22.845Z,962.57
2016-08-06T10:39:22.850Z,962.56
2016-08-06T10:40:22.847Z,962.59
2016-08-06T10:41:22.846Z,962.55
2016-08-06T10:42:22.856Z,962.62
2016-08-06T10:43:22.854Z,962.57
2016-08-06T10:44:22.852Z,962.57
2016-08-06T10:45:22.850Z,962.58
2016-08-06T10:46:22.853Z,962.56
2016-08-06T10:47:22.861Z,962.57
2016-08-06T10:48:22.855Z,962.54
2016-08-06T10:49:22.862Z,962.66
2016-08-06T10:50:22.853Z,962.68
2016-08-06T10:51:22.863Z,962.7
2016-08-06T10:52:22.862Z,962.71
2016-08-06T10:53:22.856Z,962.69
2016-08-06T10:54:22.863Z,962.67
2016-08-06T10:55:22.863Z,962.73
2016-08-06T10:56:22.892Z,962.74
2016-08-06T10:57:22.906Z,962.77
2016-08-06T10:58:22.893Z,962.74
2016-08-06T10:59:22.897Z,962.79
2016-08-06T11:00:22.878Z,962.85
2016-08-06T11:01:22.857Z,962.83
2016-08-06T11:02:22.866Z,962.82
2016-08-06T11:03:22.855Z,962.85
2016-08-06T11:04:22.864Z,962.82
2016-08-06T11:05:22.863Z,962.82
2016-08-06T11:06:22.851Z,962.79
2016-08-06T11:07:22.863Z,962.79
2016-08-06T11:08:22.852Z,962.78
2016-08-06T11:09:22.861Z,962.74
2016-08-06T11:10:22.856Z,962.78
2016-08-06T11:11:22.857Z,962.81
2016-08-06T11:12:22.857Z,962.8
2016-08-06T11:13:22.853Z,962.77
2016-08-06T11:14:22.847Z,962.79
2016-08-06T11:15:22.851Z,962.79
2016-08-06T11:16:22.857Z,962.77
2016-08-06T11:17:22.848Z,962.81
2016-08-06T11:18:22.855Z,962.79
2016-08-06T11:19:22.854Z,962.78
2016-08-06T11:20:22.846Z,962.73
2016-08-06T11:21:22.843Z,962.76
2016-08-06T11:22:22.843Z,962.76
2016-08-06T11:23:22.851Z,962.74
2016-08-06T11:24:22.861Z,962.73
2016-08-06T11:25:22.851Z,962.74
2016-08-06T11:26:22.841Z,962.7
2016-08-06T11:27:22.850Z,962.7
2016-08-06T11:28:22.887Z,962.7
2016-08-06T11:29:22.844Z,962.71
2016-08-06T11:30:22.843Z,962.74
2016-08-06T11:31:22.845Z,962.74
2016-08-06T11:32:22.847Z,962.73
2016-08-06T11:33:22.846Z,962.75
2016-08-06T11:34:22.838Z,962.78
2016-08-06T11:35:22.839Z,962.78
2016-08-06T11:36:22.855Z,962.8
2016-08-06T11:37:22.908Z,962.8
2016-08-06T11:38:22.838Z,962.79
2016-08-06T11:39:22.842Z,962.79
2016-08-06T11:40:22.843Z,962.77
2016-08-06T11:41:22.840Z,962.83
2016-08-06T11:42:22.842Z,962.82
2016-08-06T11:43:22.838Z,962.81
2016-08-06T11:44:22.902Z,962.82
2016-08-06T11:45:22.862Z,962.85
2016-08-06T11:46:22.832Z,962.82
2016-08-06T11:47:22.833Z,962.84
2016-08-06T11:48:22.832Z,962.83
2016-08-06T11:49:22.849Z,962.83
2016-08-06T11:50:22.832Z,962.83
2016-08-06T11:51:22.833Z,962.84
2016-08-06T11:52:22.840Z,962.86
2016-08-06T11:53:22.848Z,962.87
2016-08-06T11:54:22.839Z,962.85
2016-08-06T11:55:22.829Z,962.86
2016-08-06T11:56:22.836Z,962.83
2016-08-06T11:57:22.838Z,962.81
2016-08-06T11:58:22.832Z,962.86
2016-08-06T11:59:22.839Z,962.83
2016-08-06T12:00:22.836Z,962.85
2016-08-06T12:01:22.869Z,962.81
2016-08-06T12:02:22.833Z,962.81
2016-08-06T12:03:22.834Z,962.79
2016-08-06T12:04:22.828Z,962.81
2016-08-06T12:05:22.830Z,962.83
2016-08-06T12:06:22.836Z,962.83
2016-08-06T12:07:22.876Z,962.82
2016-08-06T12:08:22.821Z,962.86
2016-08-06T12:09:22.832Z,962.86
2016-08-06T12:10:22.826Z,962.86
2016-08-06T12:11:22.825Z,962.85
2016-08-06T12:12:22.822Z,962.89
2016-08-06T12:13:22.824Z,962.87
2016-08-06T12:14:22.820Z,962.85
2016-08-06T12:15:22.817Z,962.89
2016-08-06T12:16:22.821Z,962.92
2016-08-06T12:17:22.858Z,962.92
2016-08-06T12:18:22.818Z,962.93
2016-08-06T12:19:22.821Z,962.91
2016-08-06T12:20:22.813Z,962.94
2016-08-06T12:21:22.817Z,962.96
2016-08-06T12:22:22.811Z,962.97
2016-08-06T12:23:22.816Z,962.97
2016-08-06T12:24:22.812Z,962.99
2016-08-06T12:25:22.811Z,962.98
2016-08-06T12:26:22.808Z,962.96
2016-08-06T12:27:22.839Z,962.96
2016-08-06T12:28:22.863Z,962.98
2016-08-06T12:29:22.817Z,962.95
2016-08-06T12:30:22.815Z,962.97
2016-08-06T12:31:22.813Z,962.96
2016-08-06T12:32:22.805Z,962.95
2016-08-06T12:33:22.810Z,962.98
2016-08-06T12:34:22.801Z,962.96
2016-08-06T12:35:22.815Z,962.98
2016-08-06T12:36:22.812Z,962.97
2016-08-06T12:37:22.872Z,962.99
2016-08-06T12:38:22.821Z,962.97
2016-08-06T12:39:22.808Z,962.95
2016-08-06T12:40:22.806Z,962.87
2016-08-06T12:41:22.805Z,962.87
2016-08-06T12:42:22.801Z,962.89
2016-08-06T12:43:22.799Z,962.91
2016-08-06T12:44:22.805Z,962.9
2016-08-06T12:45:22.808Z,962.88
2016-08-06T12:46:22.798Z,962.92
2016-08-06T12:47:22.808Z,962.9
2016-08-06T12:48:22.805Z,962.92
2016-08-06T12:49:22.808Z,962.96